sensor_id;sensor_type;location;lat;lon;timestamp;pressure;altitude;pressure_sealevel;temperature;humidity
30819;BME280;17546;42.674;23.284;2024-03-02T00:00:22;94140.16;;;15.30;46.43
30819;BME280;17546;42.674;23.284;2024-03-02T00:02:49;94129.91;;;15.12;46.48
30819;BME280;17546;42.674;23.284;2024-03-02T00:05:17;94134.16;;;15.26;46.33
30819;BME280;17546;42.674;23.284;2024-03-02T00:07:45;94130.91;;;15.35;45.77
30819;BME280;17546;42.674;23.284;2024-03-02T00:10:18;94133.59;;;15.06;46.43
30819;BME280;17546;42.674;23.284;2024-03-02T00:12:47;94154.06;;;15.43;46.02
30819;BME280;17546;42.674;23.284;2024-03-02T00:18:03;94138.13;;;15.52;45.53
30819;BME280;17546;42.674;23.284;2024-03-02T00:20:30;94149.66;;;15.48;45.69
30819;BME280;17546;42.674;23.284;2024-03-02T00:23:06;94163.19;;;15.65;45.17
30819;BME280;17546;42.674;23.284;2024-03-02T00:25:53;94159.19;;;15.74;45.02
30819;BME280;17546;42.674;23.284;2024-03-02T00:28:33;94134.16;;;15.81;44.75
30819;BME280;17546;42.674;23.284;2024-03-02T00:31:11;94160.91;;;15.77;44.94
30819;BME280;17546;42.674;23.284;2024-03-02T00:33:46;94163.31;;;15.38;45.95
30819;BME280;17546;42.674;23.284;2024-03-02T00:36:16;94158.53;;;15.81;45.24
30819;BME280;17546;42.674;23.284;2024-03-02T00:38:47;94138.06;;;15.65;45.26
30819;BME280;17546;42.674;23.284;2024-03-02T00:41:30;94150.66;;;16.00;44.82
30819;BME280;17546;42.674;23.284;2024-03-02T00:44:04;94157.34;;;15.76;45.21
30819;BME280;17546;42.674;23.284;2024-03-02T00:49:02;94149.91;;;16.00;45.05
30819;BME280;17546;42.674;23.284;2024-03-02T00:51:30;94135.31;;;16.15;44.51
30819;BME280;17546;42.674;23.284;2024-03-02T00:53:58;94131.22;;;16.16;44.45
30819;BME280;17546;42.674;23.284;2024-03-02T00:56:24;94134.06;;;16.23;44.30
30819;BME280;17546;42.674;23.284;2024-03-02T00:58:50;94153.69;;;15.81;45.40
30819;BME280;17546;42.674;23.284;2024-03-02T01:01:16;94132.84;;;15.82;44.75
30819;BME280;17546;42.674;23.284;2024-03-02T01:03:42;94158.88;;;15.77;45.17
30819;BME280;17546;42.674;23.284;2024-03-02T01:06:07;94158.78;;;15.90;45.05
30819;BME280;17546;42.674;23.284;2024-03-02T01:08:36;94158.63;;;15.96;44.93
30819;BME280;17546;42.674;23.284;2024-03-02T01:11:03;94159.66;;;16.06;44.72
30819;BME280;17546;42.674;23.284;2024-03-02T01:13:29;94125.88;;;15.97;44.70
30819;BME280;17546;42.674;23.284;2024-03-02T01:15:54;94149.59;;;16.32;44.47
30819;BME280;17546;42.674;23.284;2024-03-02T01:18:20;94122.16;;;16.23;44.34
30819;BME280;17546;42.674;23.284;2024-03-02T01:20:47;94113.41;;;16.26;44.41
30819;BME280;17546;42.674;23.284;2024-03-02T01:23:13;94110.38;;;16.17;44.48
30819;BME280;17546;42.674;23.284;2024-03-02T01:25:38;94134.88;;;16.31;44.77
30819;BME280;17546;42.674;23.284;2024-03-02T01:28:04;94111.19;;;16.25;44.36
30819;BME280;17546;42.674;23.284;2024-03-02T01:30:30;94137.78;;;16.55;44.24
30819;BME280;17546;42.674;23.284;2024-03-02T01:32:55;94108.53;;;16.19;44.61
30819;BME280;17546;42.674;23.284;2024-03-02T01:35:21;94131.38;;;16.39;44.41
30819;BME280;17546;42.674;23.284;2024-03-02T01:37:46;94114.41;;;16.37;44.53
30819;BME280;17546;42.674;23.284;2024-03-02T01:40:12;94116.81;;;16.40;44.48
30819;BME280;17546;42.674;23.284;2024-03-02T01:42:38;94102.69;;;16.38;44.36
30819;BME280;17546;42.674;23.284;2024-03-02T01:45:08;94113.19;;;16.53;44.36
30819;BME280;17546;42.674;23.284;2024-03-02T01:47:34;94119.53;;;16.53;44.18
30819;BME280;17546;42.674;23.284;2024-03-02T01:50:00;94116.97;;;16.63;44.03
30819;BME280;17546;42.674;23.284;2024-03-02T01:52:27;94127.09;;;16.74;43.89
30819;BME280;17546;42.674;23.284;2024-03-02T01:54:52;94092.16;;;16.60;44.00
30819;BME280;17546;42.674;23.284;2024-03-02T01:57:18;94121.03;;;16.55;44.77
30819;BME280;17546;42.674;23.284;2024-03-02T01:59:44;94107.97;;;16.57;44.44
30819;BME280;17546;42.674;23.284;2024-03-02T02:02:10;94114.38;;;16.65;44.31
30819;BME280;17546;42.674;23.284;2024-03-02T02:04:35;94102.75;;;16.53;44.41
30819;BME280;17546;42.674;23.284;2024-03-02T02:07:01;94110.25;;;16.66;44.52
30819;BME280;17546;42.674;23.284;2024-03-02T02:09:27;94131.00;;;16.79;44.71
30819;BME280;17546;42.674;23.284;2024-03-02T02:11:52;94121.53;;;16.82;44.26
30819;BME280;17546;42.674;23.284;2024-03-02T02:14:18;94093.09;;;16.62;44.66
30819;BME280;17546;42.674;23.284;2024-03-02T02:16:43;94127.91;;;16.90;44.47
30819;BME280;17546;42.674;23.284;2024-03-02T02:19:09;94103.34;;;16.60;44.44
30819;BME280;17546;42.674;23.284;2024-03-02T02:21:35;94118.19;;;16.83;44.27
30819;BME280;17546;42.674;23.284;2024-03-02T02:24:01;94127.16;;;16.89;44.23
30819;BME280;17546;42.674;23.284;2024-03-02T02:26:29;94116.56;;;16.96;44.49
30819;BME280;17546;42.674;23.284;2024-03-02T02:28:55;94114.53;;;16.96;44.53
30819;BME280;17546;42.674;23.284;2024-03-02T02:31:21;94122.72;;;17.02;44.54
30819;BME280;17546;42.674;23.284;2024-03-02T02:33:46;94104.41;;;16.93;44.64
30819;BME280;17546;42.674;23.284;2024-03-02T02:36:12;94095.19;;;16.69;44.25
30819;BME280;17546;42.674;23.284;2024-03-02T02:38:40;94105.31;;;16.44;45.08
30819;BME280;17546;42.674;23.284;2024-03-02T02:41:08;94119.03;;;16.70;44.65
30819;BME280;17546;42.674;23.284;2024-03-02T02:43:33;94121.97;;;16.57;44.91
30819;BME280;17546;42.674;23.284;2024-03-02T02:45:59;94113.28;;;16.40;45.37
30819;BME280;17546;42.674;23.284;2024-03-02T02:48:24;94104.03;;;16.16;45.69
30819;BME280;17546;42.674;23.284;2024-03-02T02:50:50;94124.53;;;16.19;46.09
30819;BME280;17546;42.674;23.284;2024-03-02T02:53:16;94129.28;;;16.31;45.70
30819;BME280;17546;42.674;23.284;2024-03-02T02:55:41;94127.16;;;16.24;45.70
30819;BME280;17546;42.674;23.284;2024-03-02T02:58:11;94103.94;;;16.01;45.94
30819;BME280;17546;42.674;23.284;2024-03-02T03:00:36;94127.69;;;16.15;46.09
30819;BME280;17546;42.674;23.284;2024-03-02T03:03:02;94126.78;;;16.20;46.00
30819;BME280;17546;42.674;23.284;2024-03-02T03:05:27;94110.50;;;16.11;45.86
30819;BME280;17546;42.674;23.284;2024-03-02T03:07:53;94134.94;;;16.18;46.13
30819;BME280;17546;42.674;23.284;2024-03-02T03:10:19;94128.47;;;15.95;46.60
30819;BME280;17546;42.674;23.284;2024-03-02T03:12:47;94128.75;;;15.83;46.86
30819;BME280;17546;42.674;23.284;2024-03-02T03:15:12;94112.00;;;15.41;47.58
30819;BME280;17546;42.674;23.284;2024-03-02T03:17:38;94106.81;;;15.24;47.93
30819;BME280;17546;42.674;23.284;2024-03-02T03:20:04;94106.22;;;15.39;47.70
30819;BME280;17546;42.674;23.284;2024-03-02T03:22:30;94119.28;;;15.44;47.79
30819;BME280;17546;42.674;23.284;2024-03-02T03:25:01;94123.03;;;15.68;47.25
30819;BME280;17546;42.674;23.284;2024-03-02T03:27:28;94120.19;;;15.81;46.89
30819;BME280;17546;42.674;23.284;2024-03-02T03:29:54;94118.72;;;15.67;47.04
30819;BME280;17546;42.674;23.284;2024-03-02T03:32:19;94107.84;;;15.56;47.24
30819;BME280;17546;42.674;23.284;2024-03-02T03:34:45;94121.94;;;15.71;47.26
30819;BME280;17546;42.674;23.284;2024-03-02T03:37:11;94120.97;;;15.68;47.28
30819;BME280;17546;42.674;23.284;2024-03-02T03:39:36;94108.31;;;15.46;47.55
30819;BME280;17546;42.674;23.284;2024-03-02T03:42:03;94126.69;;;15.63;47.75
30819;BME280;17546;42.674;23.284;2024-03-02T03:44:29;94128.69;;;15.76;47.18
30819;BME280;17546;42.674;23.284;2024-03-02T03:46:55;94125.91;;;15.76;47.09
30819;BME280;17546;42.674;23.284;2024-03-02T03:49:20;94128.94;;;15.64;47.62
30819;BME280;17546;42.674;23.284;2024-03-02T03:51:46;94114.25;;;15.64;47.42
30819;BME280;17546;42.674;23.284;2024-03-02T03:54:11;94123.59;;;15.87;47.01
30819;BME280;17546;42.674;23.284;2024-03-02T03:56:37;94116.78;;;15.75;47.22
30819;BME280;17546;42.674;23.284;2024-03-02T03:59:03;94119.69;;;15.90;47.21
30819;BME280;17546;42.674;23.284;2024-03-02T04:01:30;94101.44;;;15.68;47.16
30819;BME280;17546;42.674;23.284;2024-03-02T04:03:55;94101.63;;;15.70;47.21
30819;BME280;17546;42.674;23.284;2024-03-02T04:06:21;94126.38;;;15.87;47.11
30819;BME280;17546;42.674;23.284;2024-03-02T04:08:46;94122.16;;;15.94;47.04
30819;BME280;17546;42.674;23.284;2024-03-02T04:11:12;94091.38;;;15.65;47.30
30819;BME280;17546;42.674;23.284;2024-03-02T04:13:37;94121.38;;;15.52;47.88
30819;BME280;17546;42.674;23.284;2024-03-02T04:16:03;94117.78;;;15.64;47.39
30819;BME280;17546;42.674;23.284;2024-03-02T04:18:30;94116.78;;;15.75;47.50
30819;BME280;17546;42.674;23.284;2024-03-02T04:20:57;94103.28;;;15.66;47.82
30819;BME280;17546;42.674;23.284;2024-03-02T04:23:24;94101.75;;;15.65;47.26
30819;BME280;17546;42.674;23.284;2024-03-02T04:25:50;94099.38;;;15.69;47.42
30819;BME280;17546;42.674;23.284;2024-03-02T04:28:15;94108.19;;;15.73;47.22
30819;BME280;17546;42.674;23.284;2024-03-02T04:30:41;94110.28;;;15.59;47.50
30819;BME280;17546;42.674;23.284;2024-03-02T04:33:07;94107.28;;;15.36;48.09
30819;BME280;17546;42.674;23.284;2024-03-02T04:35:35;94112.38;;;15.45;47.94
30819;BME280;17546;42.674;23.284;2024-03-02T04:38:01;94121.94;;;15.50;48.14
30819;BME280;17546;42.674;23.284;2024-03-02T04:40:26;94129.28;;;15.61;48.04
30819;BME280;17546;42.674;23.284;2024-03-02T04:42:52;94125.19;;;15.62;47.85
30819;BME280;17546;42.674;23.284;2024-03-02T04:45:17;94114.53;;;15.53;47.55
30819;BME280;17546;42.674;23.284;2024-03-02T04:47:43;94132.88;;;15.69;48.02
30819;BME280;17546;42.674;23.284;2024-03-02T04:50:08;94130.31;;;15.71;47.75
30819;BME280;17546;42.674;23.284;2024-03-02T04:52:34;94133.94;;;15.79;47.79
30819;BME280;17546;42.674;23.284;2024-03-02T04:54:59;94143.13;;;15.87;47.66
30819;BME280;17546;42.674;23.284;2024-03-02T04:57:43;94142.72;;;15.83;47.75
30819;BME280;17546;42.674;23.284;2024-03-02T05:00:09;94136.97;;;15.89;47.63
30819;BME280;17546;42.674;23.284;2024-03-02T05:02:35;94116.81;;;15.83;47.70
30819;BME280;17546;42.674;23.284;2024-03-02T05:05:01;94114.66;;;15.89;47.71
30819;BME280;17546;42.674;23.284;2024-03-02T05:07:27;94132.94;;;15.98;47.45
30819;BME280;17546;42.674;23.284;2024-03-02T05:09:53;94128.09;;;15.98;47.42
30819;BME280;17546;42.674;23.284;2024-03-02T05:12:18;94128.81;;;15.91;47.58
30819;BME280;17546;42.674;23.284;2024-03-02T05:15:02;94131.00;;;15.85;47.60
30819;BME280;17546;42.674;23.284;2024-03-02T05:17:28;94153.53;;;16.08;47.35
30819;BME280;17546;42.674;23.284;2024-03-02T05:19:54;94127.31;;;15.90;47.39
30819;BME280;17546;42.674;23.284;2024-03-02T05:22:19;94135.13;;;15.91;47.51
30819;BME280;17546;42.674;23.284;2024-03-02T05:24:45;94132.03;;;15.74;47.83
30819;BME280;17546;42.674;23.284;2024-03-02T05:27:10;94163.28;;;15.94;48.09
30819;BME280;17546;42.674;23.284;2024-03-02T05:29:36;94157.28;;;15.89;48.19
30819;BME280;17546;42.674;23.284;2024-03-02T05:32:02;94141.69;;;15.73;48.28
30819;BME280;17546;42.674;23.284;2024-03-02T05:34:27;94139.94;;;15.83;48.04
30819;BME280;17546;42.674;23.284;2024-03-02T05:36:53;94157.44;;;15.84;48.01
30819;BME280;17546;42.674;23.284;2024-03-02T05:39:18;94157.88;;;15.96;48.18
30819;BME280;17546;42.674;23.284;2024-03-02T05:41:44;94173.09;;;16.08;48.05
30819;BME280;17546;42.674;23.284;2024-03-02T05:44:09;94170.75;;;15.57;48.96
30819;BME280;17546;42.674;23.284;2024-03-02T05:46:35;94150.81;;;15.18;49.48
30819;BME280;17546;42.674;23.284;2024-03-02T05:49:00;94181.50;;;15.53;49.15
30819;BME280;17546;42.674;23.284;2024-03-02T05:51:26;94179.94;;;15.65;49.03
30819;BME280;17546;42.674;23.284;2024-03-02T05:53:51;94185.84;;;15.75;48.95
30819;BME280;17546;42.674;23.284;2024-03-02T05:56:17;94157.81;;;15.67;48.68
30819;BME280;17546;42.674;23.284;2024-03-02T05:58:42;94148.81;;;15.74;48.51
30819;BME280;17546;42.674;23.284;2024-03-02T06:01:17;94178.66;;;15.87;48.66
30819;BME280;17546;42.674;23.284;2024-03-02T06:03:43;94186.63;;;16.04;48.47
30819;BME280;17546;42.674;23.284;2024-03-02T06:06:09;94164.56;;;15.93;48.34
30819;BME280;17546;42.674;23.284;2024-03-02T06:08:34;94179.28;;;16.14;48.17
30819;BME280;17546;42.674;23.284;2024-03-02T06:11:00;94183.03;;;16.17;47.89
30819;BME280;17546;42.674;23.284;2024-03-02T06:13:26;94174.88;;;16.26;48.08
30819;BME280;17546;42.674;23.284;2024-03-02T06:15:52;94165.16;;;16.20;47.88
30819;BME280;17546;42.674;23.284;2024-03-02T06:18:17;94165.22;;;16.27;47.80
30819;BME280;17546;42.674;23.284;2024-03-02T06:20:43;94163.69;;;16.26;47.60
30819;BME280;17546;42.674;23.284;2024-03-02T06:23:08;94167.41;;;16.21;47.79
30819;BME280;17546;42.674;23.284;2024-03-02T06:25:34;94156.03;;;16.19;47.71
30819;BME280;17546;42.674;23.284;2024-03-02T06:28:00;94195.16;;;16.48;47.80
30819;BME280;17546;42.674;23.284;2024-03-02T06:30:25;94186.91;;;16.42;47.75
30819;BME280;17546;42.674;23.284;2024-03-02T06:32:51;94194.66;;;16.57;47.64
30819;BME280;17546;42.674;23.284;2024-03-02T06:35:16;94195.97;;;16.56;47.79
30819;BME280;17546;42.674;23.284;2024-03-02T06:37:42;94194.84;;;16.59;47.61
30819;BME280;17546;42.674;23.284;2024-03-02T06:40:08;94175.19;;;16.44;47.58
30819;BME280;17546;42.674;23.284;2024-03-02T06:42:34;94191.50;;;16.61;47.24
30819;BME280;17546;42.674;23.284;2024-03-02T06:45:00;94170.00;;;16.48;47.37
30819;BME280;17546;42.674;23.284;2024-03-02T06:47:25;94190.78;;;16.60;47.32
30819;BME280;17546;42.674;23.284;2024-03-02T06:49:51;94187.47;;;16.41;47.65
30819;BME280;17546;42.674;23.284;2024-03-02T06:52:16;94194.44;;;16.55;47.22
30819;BME280;17546;42.674;23.284;2024-03-02T06:54:42;94203.69;;;16.42;47.59
30819;BME280;17546;42.674;23.284;2024-03-02T06:57:07;94188.16;;;16.33;47.75
30819;BME280;17546;42.674;23.284;2024-03-02T06:59:33;94206.19;;;16.53;47.61
30819;BME280;17546;42.674;23.284;2024-03-02T07:01:59;94209.63;;;16.39;47.84
30819;BME280;17546;42.674;23.284;2024-03-02T07:04:24;94202.81;;;16.47;47.70
30819;BME280;17546;42.674;23.284;2024-03-02T07:06:50;94191.41;;;16.45;47.76
30819;BME280;17546;42.674;23.284;2024-03-02T07:09:16;94199.31;;;16.55;47.89
30819;BME280;17546;42.674;23.284;2024-03-02T07:11:42;94197.94;;;16.48;48.04
30819;BME280;17546;42.674;23.284;2024-03-02T07:14:07;94206.22;;;16.61;47.53
30819;BME280;17546;42.674;23.284;2024-03-02T07:16:33;94187.97;;;16.31;47.61
30819;BME280;17546;42.674;23.284;2024-03-02T07:19:00;94213.91;;;16.40;48.14
30819;BME280;17546;42.674;23.284;2024-03-02T07:21:27;94185.94;;;16.32;47.97
30819;BME280;17546;42.674;23.284;2024-03-02T07:23:53;94178.06;;;16.02;48.21
30819;BME280;17546;42.674;23.284;2024-03-02T07:26:19;94204.84;;;15.97;48.54
30819;BME280;17546;42.674;23.284;2024-03-02T07:28:48;94211.56;;;16.02;48.71
30819;BME280;17546;42.674;23.284;2024-03-02T07:31:14;94213.91;;;15.56;49.58
30819;BME280;17546;42.674;23.284;2024-03-02T07:33:40;94226.34;;;15.89;49.56
30819;BME280;17546;42.674;23.284;2024-03-02T07:36:07;94216.34;;;15.73;49.83
30819;BME280;17546;42.674;23.284;2024-03-02T07:38:32;94195.25;;;15.50;49.59
30819;BME280;17546;42.674;23.284;2024-03-02T07:41:00;94209.25;;;15.72;49.62
30819;BME280;17546;42.674;23.284;2024-03-02T07:43:27;94223.03;;;15.90;49.09
30819;BME280;17546;42.674;23.284;2024-03-02T07:45:53;94235.69;;;15.91;49.42
30819;BME280;17546;42.674;23.284;2024-03-02T07:48:18;94199.63;;;15.25;50.02
30819;BME280;17546;42.674;23.284;2024-03-02T07:50:44;94207.94;;;15.04;51.06
30819;BME280;17546;42.674;23.284;2024-03-02T07:53:10;94229.66;;;15.19;50.89
30819;BME280;17546;42.674;23.284;2024-03-02T07:55:35;94224.88;;;15.06;51.27
30819;BME280;17546;42.674;23.284;2024-03-02T07:58:01;94225.13;;;15.42;52.79
30819;BME280;17546;42.674;23.284;2024-03-02T08:00:27;94231.34;;;16.04;52.03
30819;BME280;17546;42.674;23.284;2024-03-02T08:02:54;94234.75;;;16.10;48.89
30819;BME280;17546;42.674;23.284;2024-03-02T08:05:20;94233.25;;;15.88;48.69
30819;BME280;17546;42.674;23.284;2024-03-02T08:07:47;94219.28;;;15.88;49.18
30819;BME280;17546;42.674;23.284;2024-03-02T08:10:13;94245.56;;;16.35;48.77
30819;BME280;17546;42.674;23.284;2024-03-02T08:12:39;94226.00;;;16.14;48.38
30819;BME280;17546;42.674;23.284;2024-03-02T08:15:05;94248.78;;;16.18;48.15
30819;BME280;17546;42.674;23.284;2024-03-02T08:17:31;94228.25;;;15.73;48.92
30819;BME280;17546;42.674;23.284;2024-03-02T08:19:56;94244.22;;;15.38;50.32
30819;BME280;17546;42.674;23.284;2024-03-02T08:22:23;94223.28;;;15.79;49.09
30819;BME280;17546;42.674;23.284;2024-03-02T08:24:51;94248.09;;;16.04;48.95
30819;BME280;17546;42.674;23.284;2024-03-02T08:27:16;94220.16;;;16.04;48.81
30819;BME280;17546;42.674;23.284;2024-03-02T08:29:42;94244.13;;;16.20;48.80
30819;BME280;17546;42.674;23.284;2024-03-02T08:32:07;94219.38;;;15.61;49.77
30819;BME280;17546;42.674;23.284;2024-03-02T08:34:33;94235.03;;;15.99;48.71
30819;BME280;17546;42.674;23.284;2024-03-02T08:37:01;94238.16;;;16.16;48.83
30819;BME280;17546;42.674;23.284;2024-03-02T08:39:27;94216.97;;;16.21;49.07
30819;BME280;17546;42.674;23.284;2024-03-02T08:41:53;94212.09;;;16.21;49.25
30819;BME280;17546;42.674;23.284;2024-03-02T08:44:19;94239.16;;;16.26;49.42
30819;BME280;17546;42.674;23.284;2024-03-02T08:46:45;94238.78;;;16.51;48.83
30819;BME280;17546;42.674;23.284;2024-03-02T08:49:10;94235.31;;;16.37;48.79
30819;BME280;17546;42.674;23.284;2024-03-02T08:51:36;94241.47;;;16.64;48.48
30819;BME280;17546;42.674;23.284;2024-03-02T08:54:02;94220.53;;;16.50;49.06
30819;BME280;17546;42.674;23.284;2024-03-02T08:56:30;94228.66;;;16.19;48.85
30819;BME280;17546;42.674;23.284;2024-03-02T08:58:55;94228.00;;;16.05;49.00
30819;BME280;17546;42.674;23.284;2024-03-02T09:01:22;94238.81;;;16.09;49.10
30819;BME280;17546;42.674;23.284;2024-03-02T09:03:48;94222.38;;;16.26;48.73
30819;BME280;17546;42.674;23.284;2024-03-02T09:06:16;94224.53;;;16.13;48.95
30819;BME280;17546;42.674;23.284;2024-03-02T09:08:43;94252.25;;;16.31;48.67
30819;BME280;17546;42.674;23.284;2024-03-02T09:11:09;94244.00;;;16.47;48.23
30819;BME280;17546;42.674;23.284;2024-03-02T09:13:35;94245.19;;;16.59;48.55
30819;BME280;17546;42.674;23.284;2024-03-02T09:16:01;94241.13;;;16.68;48.18
30819;BME280;17546;42.674;23.284;2024-03-02T09:18:27;94252.28;;;16.60;47.97
30819;BME280;17546;42.674;23.284;2024-03-02T09:20:53;94254.72;;;16.92;47.73
30819;BME280;17546;42.674;23.284;2024-03-02T09:23:18;94255.44;;;16.85;48.00
30819;BME280;17546;42.674;23.284;2024-03-02T09:25:44;94256.84;;;16.50;47.84
30819;BME280;17546;42.674;23.284;2024-03-02T09:28:10;94257.34;;;16.20;48.54
30819;BME280;17546;42.674;23.284;2024-03-02T09:30:35;94258.94;;;16.57;48.37
30819;BME280;17546;42.674;23.284;2024-03-02T09:33:01;94242.28;;;16.44;47.79
30819;BME280;17546;42.674;23.284;2024-03-02T09:35:26;94249.16;;;16.43;47.59
30819;BME280;17546;42.674;23.284;2024-03-02T09:37:52;94229.44;;;16.48;47.48
30819;BME280;17546;42.674;23.284;2024-03-02T09:40:17;94242.03;;;16.63;47.41
30819;BME280;17546;42.674;23.284;2024-03-02T09:42:46;94256.81;;;16.71;47.90
30819;BME280;17546;42.674;23.284;2024-03-02T09:45:16;94268.00;;;17.00;47.41
30819;BME280;17546;42.674;23.284;2024-03-02T09:47:42;94248.78;;;16.96;47.38
30819;BME280;17546;42.674;23.284;2024-03-02T09:50:07;94240.59;;;16.98;46.81
30819;BME280;17546;42.674;23.284;2024-03-02T09:52:33;94244.69;;;16.97;47.01
30819;BME280;17546;42.674;23.284;2024-03-02T09:54:59;94259.50;;;17.13;46.23
30819;BME280;17546;42.674;23.284;2024-03-02T09:57:24;94267.94;;;17.21;46.04
30819;BME280;17546;42.674;23.284;2024-03-02T09:59:50;94268.88;;;17.23;45.98
30819;BME280;17546;42.674;23.284;2024-03-02T10:02:16;94249.63;;;17.12;45.84
30819;BME280;17546;42.674;23.284;2024-03-02T10:04:41;94262.75;;;17.32;45.59
30819;BME280;17546;42.674;23.284;2024-03-02T10:07:10;94274.41;;;17.44;45.44
30819;BME280;17546;42.674;23.284;2024-03-02T10:09:37;94257.00;;;16.94;45.81
30819;BME280;17546;42.674;23.284;2024-03-02T10:12:09;94262.19;;;17.26;45.63
30819;BME280;17546;42.674;23.284;2024-03-02T10:14:35;94262.59;;;16.94;46.57
30819;BME280;17546;42.674;23.284;2024-03-02T10:17:08;94239.59;;;16.88;46.16
30819;BME280;17546;42.674;23.284;2024-03-02T10:19:35;94244.75;;;17.12;46.26
30819;BME280;17546;42.674;23.284;2024-03-02T10:22:11;94252.28;;;17.18;46.44
30819;BME280;17546;42.674;23.284;2024-03-02T10:24:40;94267.25;;;16.99;46.90
30819;BME280;17546;42.674;23.284;2024-03-02T10:27:17;94249.00;;;16.98;47.19
30819;BME280;17546;42.674;23.284;2024-03-02T10:29:46;94245.47;;;16.98;47.15
30819;BME280;17546;42.674;23.284;2024-03-02T10:32:12;94269.44;;;17.22;47.32
30819;BME280;17546;42.674;23.284;2024-03-02T10:34:40;94245.16;;;17.17;47.31
30819;BME280;17546;42.674;23.284;2024-03-02T10:37:06;94244.41;;;17.16;47.36
30819;BME280;17546;42.674;23.284;2024-03-02T10:39:35;94263.91;;;17.37;47.13
30819;BME280;17546;42.674;23.284;2024-03-02T10:42:02;94241.84;;;17.26;47.29
30819;BME280;17546;42.674;23.284;2024-03-02T10:44:29;94235.00;;;16.98;47.33
30819;BME280;17546;42.674;23.284;2024-03-02T10:46:55;94255.75;;;17.10;47.51
30819;BME280;17546;42.674;23.284;2024-03-02T10:49:22;94238.28;;;17.18;47.14
30819;BME280;17546;42.674;23.284;2024-03-02T10:51:49;94251.56;;;17.32;47.75
30819;BME280;17546;42.674;23.284;2024-03-02T10:54:14;94250.09;;;17.31;47.53
30819;BME280;17546;42.674;23.284;2024-03-02T10:56:41;94250.31;;;17.41;47.66
30819;BME280;17546;42.674;23.284;2024-03-02T10:59:28;94224.75;;;16.72;48.18
30819;BME280;17546;42.674;23.284;2024-03-02T11:01:58;94232.50;;;16.08;49.67
30819;BME280;17546;42.674;23.284;2024-03-02T11:04:26;94236.84;;;15.75;50.49
30819;BME280;17546;42.674;23.284;2024-03-02T11:07:09;94240.50;;;15.70;50.71
30819;BME280;17546;42.674;23.284;2024-03-02T11:09:39;94237.66;;;16.04;50.24
30819;BME280;17546;42.674;23.284;2024-03-02T11:12:12;94241.69;;;16.17;49.80
30819;BME280;17546;42.674;23.284;2024-03-02T11:14:41;94224.94;;;15.75;50.33
30819;BME280;17546;42.674;23.284;2024-03-02T11:17:11;94244.53;;;16.45;49.17
30819;BME280;17546;42.674;23.284;2024-03-02T11:19:40;94229.41;;;16.41;49.02
30819;BME280;17546;42.674;23.284;2024-03-02T11:22:06;94233.22;;;16.09;49.53
30819;BME280;17546;42.674;23.284;2024-03-02T11:24:33;94230.44;;;16.30;49.30
30819;BME280;17546;42.674;23.284;2024-03-02T11:27:00;94238.00;;;16.43;48.81
30819;BME280;17546;42.674;23.284;2024-03-02T11:32:04;94212.75;;;16.56;48.95
30819;BME280;17546;42.674;23.284;2024-03-02T11:34:30;94234.56;;;16.86;48.72
30819;BME280;17546;42.674;23.284;2024-03-02T11:36:56;94230.94;;;16.78;49.10
30819;BME280;17546;42.674;23.284;2024-03-02T11:39:22;94224.41;;;16.76;48.91
30819;BME280;17546;42.674;23.284;2024-03-02T11:41:47;94214.56;;;16.04;49.21
30819;BME280;17546;42.674;23.284;2024-03-02T11:44:14;94220.28;;;15.77;49.71
30819;BME280;17546;42.674;23.284;2024-03-02T11:46:40;94219.19;;;15.80;49.66
30819;BME280;17546;42.674;23.284;2024-03-02T11:49:06;94213.75;;;16.17;48.82
30819;BME280;17546;42.674;23.284;2024-03-02T11:51:33;94225.38;;;16.49;48.37
30819;BME280;17546;42.674;23.284;2024-03-02T11:54:01;94229.91;;;16.31;48.94
30819;BME280;17546;42.674;23.284;2024-03-02T11:56:28;94229.91;;;16.60;48.67
30819;BME280;17546;42.674;23.284;2024-03-02T11:58:56;94231.94;;;16.60;48.67
30819;BME280;17546;42.674;23.284;2024-03-02T12:01:23;94231.50;;;16.77;48.00
30819;BME280;17546;42.674;23.284;2024-03-02T12:03:48;94230.34;;;16.22;49.16
30819;BME280;17546;42.674;23.284;2024-03-02T12:06:14;94212.44;;;16.39;48.81
30819;BME280;17546;42.674;23.284;2024-03-02T12:08:40;94205.09;;;16.28;49.00
30819;BME280;17546;42.674;23.284;2024-03-02T12:11:06;94226.91;;;15.87;50.10
30819;BME280;17546;42.674;23.284;2024-03-02T12:13:32;94234.59;;;16.37;48.71
30819;BME280;17546;42.674;23.284;2024-03-02T12:15:58;94226.28;;;16.23;49.05
30819;BME280;17546;42.674;23.284;2024-03-02T12:18:24;94229.00;;;16.16;49.08
30819;BME280;17546;42.674;23.284;2024-03-02T12:20:50;94233.06;;;16.57;48.53
30819;BME280;17546;42.674;23.284;2024-03-02T12:23:22;94233.75;;;16.78;47.82
30819;BME280;17546;42.674;23.284;2024-03-02T12:25:48;94229.22;;;16.67;47.97
30819;BME280;17546;42.674;23.284;2024-03-02T12:28:14;94229.94;;;16.39;48.52
30819;BME280;17546;42.674;23.284;2024-03-02T12:30:39;94212.97;;;15.87;49.70
30819;BME280;17546;42.674;23.284;2024-03-02T12:33:05;94191.81;;;16.49;48.10
30819;BME280;17546;42.674;23.284;2024-03-02T12:35:30;94224.16;;;16.94;47.91
30819;BME280;17546;42.674;23.284;2024-03-02T12:37:56;94224.81;;;16.80;48.45
30819;BME280;17546;42.674;23.284;2024-03-02T12:40:23;94215.16;;;16.81;48.25
30819;BME280;17546;42.674;23.284;2024-03-02T12:42:49;94227.97;;;16.47;48.62
30819;BME280;17546;42.674;23.284;2024-03-02T12:45:16;94234.94;;;16.83;47.99
30819;BME280;17546;42.674;23.284;2024-03-02T12:47:49;94219.59;;;16.26;48.93
30819;BME280;17546;42.674;23.284;2024-03-02T12:50:14;94211.91;;;16.19;48.82
30819;BME280;17546;42.674;23.284;2024-03-02T12:52:40;94211.31;;;16.70;47.72
30819;BME280;17546;42.674;23.284;2024-03-02T12:55:05;94232.22;;;16.98;47.70